Time,TemperatureF,DewpointF,PressureIn,WindDirection,WindDirectionDegrees,WindSpeedMPH,WindSpeedGustMPH,Humidity,HourlyPrecipIn,Conditions,Clouds,dailyrainin,SolarRadiationWatts/m^2,SoftwareType,DateUTC
2013-09-07 00:04:00,72.0,71.0,-100.00,SW,232,1.0,4.0,96,0.17,,,1.54,0.000000,,2013-09-07 04:04:00,
2013-09-07 00:11:00,73.0,72.0,-100.00,SSE,152,2.0,4.0,97,0.10,,,1.64,0.000000,,2013-09-07 04:11:00,
2013-09-07 00:43:00,73.0,72.0,-100.00,SSE,152,2.0,4.0,97,0.10,,,1.64,0.000000,,2013-09-07 04:43:00,
2013-09-07 00:54:00,73.0,72.0,-100.00,SSE,152,2.0,4.0,97,0.10,,,1.64,0.000000,,2013-09-07 04:54:00,
2013-09-07 01:03:00,73.0,72.0,-100.00,SSE,152,2.0,4.0,97,0.10,,,1.64,0.000000,,2013-09-07 05:03:00,
2013-09-07 01:11:00,73.0,72.0,-100.00,NE,43,1.0,9.0,96,0.03,,,1.67,0.000000,,2013-09-07 05:11:00,
2013-09-07 01:42:00,73.0,72.0,-100.00,NE,43,1.0,9.0,96,0.03,,,1.67,0.000000,,2013-09-07 05:42:00,
2013-09-07 01:52:00,73.0,72.0,-100.00,NE,43,1.0,9.0,96,0.03,,,1.67,0.000000,,2013-09-07 05:52:00,
2013-09-07 02:02:00,73.0,72.0,-100.00,NE,43,1.0,9.0,96,0.03,,,1.67,0.000000,,2013-09-07 06:02:00,
2013-09-07 02:11:00,74.0,73.0,-100.00,North,353,1.0,6.0,96,0.00,,,1.67,0.000000,,2013-09-07 06:11:00,
2013-09-07 02:43:00,74.0,73.0,-100.00,North,353,1.0,6.0,96,0.00,,,1.67,0.000000,,2013-09-07 06:43:00,
2013-09-07 02:52:00,74.0,73.0,-100.00,North,353,1.0,6.0,96,0.00,,,1.67,0.000000,,2013-09-07 06:52:00,
2013-09-07 03:02:00,74.0,73.0,-100.00,North,353,1.0,6.0,96,0.00,,,1.67,0.000000,,2013-09-07 07:02:00,
2013-09-07 03:11:00,74.0,73.0,-100.00,NNE,16,1.0,4.0,97,0.00,,,1.67,0.000000,,2013-09-07 07:11:00,
2013-09-07 03:43:00,74.0,73.0,-100.00,NNE,16,1.0,4.0,97,0.00,,,1.67,0.000000,,2013-09-07 07:43:00,
2013-09-07 03:52:00,74.0,73.0,-100.00,NNE,16,1.0,4.0,97,0.00,,,1.67,0.000000,,2013-09-07 07:52:00,
2013-09-07 04:03:00,74.0,73.0,-100.00,NNE,16,1.0,4.0,97,0.00,,,1.67,0.000000,,2013-09-07 08:03:00,
2013-09-07 04:11:00,75.0,74.0,-100.00,NNW,347,3.0,6.0,97,0.00,,,1.67,0.000000,,2013-09-07 08:11:00,
2013-09-07 04:43:00,75.0,74.0,-100.00,NNW,347,3.0,6.0,97,0.00,,,1.67,0.000000,,2013-09-07 08:43:00,
2013-09-07 04:53:00,75.0,74.0,-100.00,NNW,347,3.0,6.0,97,0.00,,,1.67,0.000000,,2013-09-07 08:53:00,
2013-09-07 05:02:00,75.0,74.0,-100.00,NNW,347,3.0,6.0,97,0.00,,,1.67,0.000000,,2013-09-07 09:02:00,
2013-09-07 05:11:00,74.0,73.0,-100.00,North,6,3.0,7.0,96,0.00,,,1.67,0.000000,,2013-09-07 09:11:00,
2013-09-07 05:43:00,74.0,73.0,-100.00,North,6,3.0,7.0,96,0.00,,,1.67,0.000000,,2013-09-07 09:43:00,
2013-09-07 05:52:00,74.0,73.0,-100.00,North,6,3.0,7.0,96,0.00,,,1.67,0.000000,,2013-09-07 09:52:00,
2013-09-07 06:02:00,74.0,73.0,-100.00,North,6,3.0,7.0,96,0.00,,,1.67,0.000000,,2013-09-07 10:02:00,
2013-09-07 06:11:00,74.0,73.0,-100.00,NNE,31,2.0,5.0,96,0.00,,,1.67,0.000000,,2013-09-07 10:11:00,
2013-09-07 06:41:00,74.0,73.0,-100.00,NNE,31,2.0,5.0,96,0.00,,,1.67,0.000000,,2013-09-07 10:41:00,
2013-09-07 06:52:00,74.0,73.0,-100.00,NNE,31,2.0,5.0,96,0.00,,,1.67,0.000000,,2013-09-07 10:52:00,
2013-09-07 07:03:00,74.0,73.0,-100.00,NNE,31,2.0,5.0,96,0.00,,,1.67,0.000000,,2013-09-07 11:03:00,
2013-09-07 07:11:00,75.0,74.0,-100.00,North,358,2.0,5.0,97,0.00,,,1.66,0.000000,,2013-09-07 11:11:00,
2013-09-07 07:43:00,75.0,74.0,-100.00,North,358,2.0,5.0,97,0.00,,,1.66,0.000000,,2013-09-07 11:43:00,
2013-09-07 07:53:00,75.0,74.0,-100.00,North,358,2.0,5.0,97,0.00,,,1.66,0.000000,,2013-09-07 11:53:00,
2013-09-07 08:02:00,75.0,74.0,-100.00,North,358,2.0,5.0,97,0.00,,,1.66,0.000000,,2013-09-07 12:02:00,
2013-09-07 08:11:00,77.0,76.0,-100.00,North,4,1.0,6.0,96,0.00,,,1.66,35.000000,,2013-09-07 12:11:00,
2013-09-07 08:42:00,77.0,76.0,-100.00,North,4,1.0,6.0,96,0.00,,,1.66,35.000000,,2013-09-07 12:42:00,
2013-09-07 08:52:00,77.0,76.0,-100.00,North,4,1.0,6.0,96,0.00,,,1.66,35.000000,,2013-09-07 12:52:00,
2013-09-07 09:02:00,77.0,76.0,-100.00,North,4,1.0,6.0,96,0.00,,,1.66,35.000000,,2013-09-07 13:02:00,
2013-09-07 09:11:00,83.0,76.0,-100.00,NE,44,3.0,5.0,79,0.00,,,1.66,234.000000,,2013-09-07 13:11:00,
2013-09-07 09:42:00,83.0,76.0,-100.00,NE,44,3.0,5.0,79,0.00,,,1.66,234.000000,,2013-09-07 13:42:00,
2013-09-07 09:52:00,83.0,76.0,-100.00,NE,44,3.0,5.0,79,0.00,,,1.66,234.000000,,2013-09-07 13:52:00,
2013-09-07 10:02:00,83.0,76.0,-100.00,NE,44,3.0,5.0,79,0.00,,,1.66,234.000000,,2013-09-07 14:02:00,
2013-09-07 10:11:00,84.0,76.0,-100.00,ENE,77,3.0,8.0,76,0.00,,,-99.99,393.000000,,2013-09-07 14:11:00,
2013-09-07 10:43:00,84.0,76.0,-100.00,ENE,77,3.0,8.0,76,0.00,,,-99.99,393.000000,,2013-09-07 14:43:00,
2013-09-07 10:52:00,84.0,76.0,-100.00,ENE,77,3.0,8.0,76,0.00,,,-99.99,393.000000,,2013-09-07 14:52:00,
2013-09-07 11:02:00,84.0,76.0,-100.00,ENE,77,3.0,8.0,76,0.00,,,-99.99,393.000000,,2013-09-07 15:02:00,
2013-09-07 11:11:00,85.0,74.0,-100.00,ENE,78,3.0,6.0,70,0.00,,,1.66,346.000000,,2013-09-07 15:11:00,
2013-09-07 11:44:00,85.0,74.0,-100.00,ENE,78,3.0,6.0,70,0.00,,,1.66,346.000000,,2013-09-07 15:44:00,
2013-09-07 11:54:00,85.0,74.0,-100.00,ENE,78,3.0,6.0,70,0.00,,,1.66,346.000000,,2013-09-07 15:54:00,
2013-09-07 12:04:00,85.0,74.0,-100.00,ENE,78,3.0,6.0,70,0.00,,,1.66,346.000000,,2013-09-07 16:04:00,
2013-09-07 12:11:00,87.0,73.0,-100.00,East,93,2.0,5.0,64,0.00,,,1.66,424.000000,,2013-09-07 16:11:00,
2013-09-07 12:43:00,87.0,73.0,-100.00,East,93,2.0,5.0,64,0.00,,,1.66,424.000000,,2013-09-07 16:43:00,
2013-09-07 12:53:00,87.0,73.0,-100.00,East,93,2.0,5.0,64,0.00,,,1.66,424.000000,,2013-09-07 16:53:00,
2013-09-07 13:04:00,87.0,73.0,-100.00,East,93,2.0,5.0,64,0.00,,,1.66,424.000000,,2013-09-07 17:04:00,
2013-09-07 13:11:00,88.0,74.0,-100.00,East,99,2.0,5.0,63,0.00,,,1.66,457.000000,,2013-09-07 17:11:00,
2013-09-07 13:43:00,88.0,74.0,-100.00,East,99,2.0,5.0,63,0.00,,,1.66,457.000000,,2013-09-07 17:43:00,
2013-09-07 13:52:00,88.0,74.0,-100.00,East,99,2.0,5.0,63,0.00,,,1.66,457.000000,,2013-09-07 17:52:00,
2013-09-07 14:01:00,88.0,74.0,-100.00,East,99,2.0,5.0,63,0.00,,,1.66,457.000000,,2013-09-07 18:01:00,
2013-09-07 14:11:00,89.0,73.0,-100.00,South,181,2.0,6.0,60,0.00,,,1.66,436.000000,,2013-09-07 18:11:00,
2013-09-07 14:43:00,89.0,73.0,-100.00,South,181,2.0,6.0,60,0.00,,,1.66,436.000000,,2013-09-07 18:43:00,
2013-09-07 14:52:00,89.0,73.0,-100.00,South,181,2.0,6.0,60,0.00,,,1.66,436.000000,,2013-09-07 18:52:00,
2013-09-07 15:02:00,89.0,73.0,-100.00,South,181,2.0,6.0,60,0.00,,,1.66,436.000000,,2013-09-07 19:02:00,
2013-09-07 15:11:00,80.0,69.0,-100.00,SSW,205,3.0,13.0,69,0.00,,,1.66,210.000000,,2013-09-07 19:11:00,
2013-09-07 15:42:00,80.0,69.0,-100.00,SSW,205,3.0,13.0,69,0.00,,,1.66,210.000000,,2013-09-07 19:42:00,
2013-09-07 15:53:00,80.0,69.0,-100.00,SSW,205,3.0,13.0,69,0.00,,,1.66,210.000000,,2013-09-07 19:53:00,
2013-09-07 16:02:00,80.0,69.0,-100.00,SSW,205,3.0,13.0,69,0.00,,,1.66,210.000000,,2013-09-07 20:02:00,
2013-09-07 16:11:00,81.0,72.0,-100.00,SW,231,3.0,7.0,73,0.00,,,1.66,222.000000,,2013-09-07 20:11:00,
2013-09-07 16:42:00,81.0,72.0,-100.00,SW,231,3.0,7.0,73,0.00,,,1.66,222.000000,,2013-09-07 20:42:00,
2013-09-07 16:53:00,81.0,72.0,-100.00,SW,231,3.0,7.0,73,0.00,,,1.66,222.000000,,2013-09-07 20:53:00,
2013-09-07 17:02:00,81.0,72.0,-100.00,SW,231,3.0,7.0,73,0.00,,,1.66,222.000000,,2013-09-07 21:02:00,
2013-09-07 18:11:00,79.0,72.0,-100.00,NNW,340,3.0,12.0,78,-99.99,,,1.66,215.000000,,2013-09-07 22:11:00,
2013-09-07 18:43:00,79.0,72.0,-100.00,NNW,340,3.0,12.0,78,-99.99,,,1.66,215.000000,,2013-09-07 22:43:00,
2013-09-07 18:53:00,79.0,72.0,-100.00,NNW,340,3.0,12.0,78,-99.99,,,1.66,215.000000,,2013-09-07 22:53:00,
2013-09-07 19:03:00,79.0,72.0,-100.00,NNW,340,3.0,12.0,78,-99.99,,,1.66,215.000000,,2013-09-07 23:03:00,
2013-09-07 19:11:00,77.0,72.0,-100.00,North,7,3.0,7.0,85,0.00,,,1.66,57.000000,,2013-09-07 23:11:00,
2013-09-07 19:42:00,77.0,72.0,-100.00,North,7,3.0,7.0,85,0.00,,,1.66,57.000000,,2013-09-07 23:42:00,
2013-09-07 19:53:00,77.0,72.0,-100.00,North,7,3.0,7.0,85,0.00,,,1.66,57.000000,,2013-09-07 23:53:00,
2013-09-07 20:02:00,77.0,72.0,-100.00,North,7,3.0,7.0,85,0.00,,,1.66,57.000000,,2013-09-08 00:02:00,
2013-09-07 20:11:00,75.0,73.0,-100.00,North,5,1.0,4.0,92,0.00,,,1.59,6.000000,,2013-09-08 00:11:00,
2013-09-07 20:43:00,75.0,73.0,-100.00,North,5,1.0,4.0,92,0.00,,,1.59,6.000000,,2013-09-08 00:43:00,
2013-09-07 20:52:00,75.0,73.0,-100.00,North,5,1.0,4.0,92,0.00,,,1.59,6.000000,,2013-09-08 00:52:00,
2013-09-07 21:01:00,75.0,73.0,-100.00,North,5,1.0,4.0,92,0.00,,,1.59,6.000000,,2013-09-08 01:01:00,
2013-09-07 21:11:00,74.0,72.0,-100.00,ENE,59,0.0,3.0,93,0.00,,,1.25,0.000000,,2013-09-08 01:11:00,
2013-09-07 21:42:00,74.0,72.0,-100.00,ENE,59,0.0,3.0,93,0.00,,,1.25,0.000000,,2013-09-08 01:42:00,
2013-09-07 21:52:00,74.0,72.0,-100.00,ENE,59,0.0,3.0,93,0.00,,,1.25,0.000000,,2013-09-08 01:52:00,
2013-09-07 22:02:00,74.0,72.0,-100.00,ENE,59,0.0,3.0,93,0.00,,,1.25,0.000000,,2013-09-08 02:02:00,
2013-09-07 22:11:00,73.0,71.0,-100.00,East,101,0.0,4.0,94,0.00,,,0.30,0.000000,,2013-09-08 02:11:00,
2013-09-07 22:43:00,73.0,71.0,-100.00,East,101,0.0,4.0,94,0.00,,,0.30,0.000000,,2013-09-08 02:43:00,
2013-09-07 22:52:00,73.0,71.0,-100.00,East,101,0.0,4.0,94,0.00,,,0.30,0.000000,,2013-09-08 02:52:00,
2013-09-07 23:03:00,73.0,71.0,-100.00,East,101,0.0,4.0,94,0.00,,,0.30,0.000000,,2013-09-08 03:03:00,
2013-09-07 23:11:00,72.0,71.0,-100.00,ENE,74,0.0,2.0,96,0.00,,,0.13,0.000000,,2013-09-08 03:11:00,
2013-09-07 23:44:00,72.0,71.0,-100.00,ENE,74,0.0,2.0,96,0.00,,,0.13,0.000000,,2013-09-08 03:44:00,
2013-09-07 23:54:00,72.0,71.0,-100.00,ENE,74,0.0,2.0,96,0.00,,,0.13,0.000000,,2013-09-08 03:54:00,